Data for 10/14/2018

Time Sea-Level Adjusted Pressure Absolute Pressure Temperature Relative Humidity Dew Point   
(mb) (inHg) (mb) (inHg) (C) (F) (%) (C) (F)
00:05 1026 30.3 855 25.25 -4 24.8 86 -6.1 21
00:10 1026 30.3 855 25.25 -4 24.8 86 -6 21.2
00:15 1026 30.3 855 25.25 -4 24.8 87 -5.9 21.4
00:20 1026 30.3 855 25.25 -4 24.8 87 -5.9 21.4
00:25 1026 30.3 855 25.25 -4 24.7 88 -5.8 21.5
00:30 1026 30.3 855 25.25 -4.1 24.7 88 -5.8 21.5
00:35 1026 30.3 855 25.25 -4.1 24.6 87 -5.9 21.4
00:40 1026 30.3 855 25.25 -4.2 24.5 88 -5.9 21.3
00:45 1026 30.3 855 25.25 -4.2 24.5 88 -5.9 21.4
00:50 1026 30.3 855 25.25 -4.2 24.5 88 -5.9 21.3
00:55 1026 30.3 855 25.25 -4.2 24.4 87 -6.1 21.1
01:00 1026 30.3 855 25.25 -4.2 24.4 86 -6.2 20.9
01:05 1026 30.3 855 25.25 -4.2 24.4 86 -6.2 20.8
01:10 1026 30.3 855 25.25 -4.2 24.4 85 -6.3 20.7
01:15 1026 30.3 855 25.25 -4.2 24.4 84 -6.5 20.4
01:20 1026 30.3 855 25.25 -4.2 24.4 83 -6.7 20
01:25 1026 30.3 855 25.25 -4.2 24.4 83 -6.8 19.8
01:30 1026 30.3 855 25.25 -4.3 24.2 82 -6.9 19.5
01:35 1026 30.3 855 25.25 -4.5 24 82 -7 19.3
01:40 1026 30.3 855 25.25 -4.6 23.8 82 -7.2 19.1
01:45 1026 30.3 855 25.25 -4.7 23.6 82 -7.2 19
01:50 1026 30.3 855 25.25 -4.7 23.5 82 -7.4 18.6
01:55 1026 30.3 855 25.25 -4.8 23.4 81 -7.5 18.5
02:00 1026 30.3 856 25.28 -4.9 23.2 81 -7.6 18.2
02:05 1026 30.3 856 25.28 -5 22.9 81 -7.9 17.8
02:10 1026 30.3 856 25.28 -5.2 22.6 81 -8 17.6
02:15 1026 30.3 856 25.28 -5.3 22.4 81 -8.1 17.4
02:20 1026 30.3 856 25.28 -5.3 22.4 79 -8.3 17
02:25 1026 30.3 856 25.28 -5.3 22.4 79 -8.4 16.9
02:30 1026 30.3 856 25.28 -5.4 22.2 79 -8.6 16.6
02:35 1026 30.3 855 25.25 -5.6 21.9 79 -8.7 16.4
02:40 1026 30.3 856 25.28 -5.6 22 79 -8.7 16.4
02:45 1026 30.3 855 25.25 -5.5 22.1 79 -8.6 16.5
02:50 1026 30.3 856 25.28 -5.4 22.2 78 -8.7 16.4
02:55 1026 30.3 856 25.28 -5.4 22.2 78 -8.7 16.4
03:00 1026 30.3 856 25.28 -5.4 22.2 78 -8.7 16.4
03:05 1026 30.3 856 25.28 -5.4 22.3 77 -8.8 16.2
03:10 1026 30.3 856 25.28 -5.4 22.3 78 -8.7 16.3
03:15 1026 30.3 856 25.28 -5.4 22.3 78 -8.7 16.4
03:20 1026 30.3 856 25.28 -5.3 22.4 78 -8.6 16.5
03:25 1026 30.3 856 25.28 -5.3 22.5 78 -8.5 16.7
03:30 1026 30.3 856 25.28 -5.3 22.5 78 -8.5 16.8
03:35 1026 30.3 856 25.28 -5.2 22.6 79 -8.4 16.9
03:40 1026 30.3 856 25.28 -5.2 22.6 78 -8.4 16.9
03:45 1026 30.3 856 25.28 -5.2 22.6 79 -8.4 16.9
03:50 1027 30.33 856 25.28 -5.1 22.8 78 -8.4 16.9
03:55 1027 30.33 856 25.28 -5.1 22.7 78 -8.3 17
04:00 1027 30.33 856 25.28 -5.1 22.8 79 -8.3 17.1
04:05 1027 30.33 856 25.28 -5 22.9 78 -8.3 17.1
04:10 1027 30.33 856 25.28 -5.1 22.9 78 -8.4 16.9
04:15 1027 30.33 856 25.28 -5 23 78 -8.2 17.2
04:20 1027 30.33 856 25.28 -4.9 23.1 78 -8.3 17.1
04:25 1027 30.33 856 25.28 -4.9 23.2 78 -8.1 17.4
04:30 1027 30.33 856 25.28 -4.9 23.2 78 -8.2 17.3
04:35 1027 30.33 856 25.28 -4.9 23.2 78 -8.2 17.2
04:40 1027 30.33 856 25.28 -4.8 23.3 78 -8.1 17.4
04:45 1027 30.33 856 25.28 -4.8 23.4 78 -8.1 17.4
04:50 1027 30.33 856 25.28 -4.8 23.4 77 -8.2 17.3
04:55 1027 30.33 856 25.28 -4.8 23.5 77 -8.1 17.3
05:00 1027 30.33 856 25.28 -4.8 23.4 77 -8.2 17.3
05:05 1027 30.33 856 25.28 -4.9 23.1 78 -8.3 17.1
05:10 1027 30.33 856 25.28 -5.1 22.9 78 -8.4 16.9
05:15 1027 30.33 856 25.28 -5.1 22.8 79 -8.3 17.1
05:20 1027 30.33 856 25.28 -5 23 78 -8.3 17.1
05:25 1027 30.33 856 25.28 -5 23 78 -8.2 17.3
05:30 1027 30.33 856 25.28 -5 23 79 -8.1 17.4
05:35 1027 30.33 856 25.28 -5 23.1 79 -8.1 17.5
05:40 1027 30.33 856 25.28 -4.9 23.1 79 -8.1 17.4
05:45 1027 30.33 856 25.28 -4.9 23.2 79 -8 17.6
05:50 1027 30.33 857 25.31 -4.8 23.3 79 -7.9 17.8
05:55 1027 30.33 857 25.31 -4.9 23.2 80 -7.8 18
06:00 1027 30.33 856 25.28 -4.8 23.3 80 -7.8 17.9
06:05 1027 30.33 857 25.31 -4.9 23.2 80 -7.8 18
06:10 1027 30.33 857 25.31 -4.9 23.2 80 -7.8 18
06:15 1027 30.33 857 25.31 -4.9 23.1 81 -7.8 18
06:20 1027 30.33 857 25.31 -5 23.1 80 -7.8 17.9
06:25 1027 30.33 857 25.31 -5.1 22.8 81 -7.8 17.9
06:30 1027 30.33 857 25.31 -5.1 22.8 81 -8 17.7
06:35 1027 30.33 857 25.31 -5.1 22.9 80 -8 17.7
06:40 1027 30.33 857 25.31 -5 23 80 -8 17.6
06:45 1027 30.33 857 25.31 -4.9 23.1 79 -8 17.6
06:50 1028 30.36 857 25.31 -5 23.1 79 -8.1 17.4
06:55 1027 30.33 857 25.31 -4.9 23.1 78 -8.2 17.3
07:00 1028 30.36 857 25.31 -5 23.1 78 -8.2 17.2
07:05 1028 30.36 857 25.31 -4.9 23.2 78 -8.2 17.3
07:10 1028 30.36 857 25.31 -4.8 23.4 77 -8.3 17.1
07:15 1028 30.36 857 25.31 -4.7 23.5 76 -8.3 17
07:20 1028 30.36 857 25.31 -4.7 23.6 75 -8.4 16.9
07:25 1028 30.36 857 25.31 -4.6 23.7 75 -8.4 17
07:30 1028 30.36 857 25.31 -4.5 23.8 75 -8.4 16.9
07:35 1028 30.36 857 25.31 -4.5 23.9 74 -8.5 16.8
07:40 1028 30.36 857 25.31 -4.4 24 73 -8.5 16.7
07:45 1028 30.36 857 25.31 -4.4 24 73 -8.5 16.6
07:50 1028 30.36 857 25.31 -4.4 24.1 73 -8.5 16.7
07:55 1028 30.36 857 25.31 -4.3 24.2 72 -8.6 16.5
08:00 1028 30.36 857 25.31 -4.3 24.3 73 -8.5 16.7
08:05 1028 30.36 857 25.31 -4.1 24.6 71 -8.6 16.6
08:10 1028 30.36 857 25.31 -4.1 24.6 72 -8.5 16.7
08:15 1028 30.36 857 25.31 -3.8 25.2 68 -8.8 16.2
08:20 1028 30.36 857 25.31 -3.6 25.5 69 -8.6 16.5
08:25 1028 30.36 857 25.31 -3.8 25.2 69 -8.8 16.2
08:30 1028 30.36 857 25.31 -3.6 25.5 67 -8.9 16
08:35 1028 30.36 857 25.31 -3.7 25.4 67 -9 15.8
08:40 1028 30.36 857 25.31 -3.6 25.6 67 -8.9 16
08:45 1028 30.36 857 25.31 -3.3 26.1 64 -9.2 15.5
08:50 1028 30.36 857 25.31 -3.3 26.1 65 -9 15.8
08:55 1028 30.36 857 25.31 -3 26.7 60 -9.7 14.6
09:00 1028 30.36 857 25.31 -3 26.7 65 -8.6 16.5
09:05 1028 30.36 857 25.31 -3 26.6 62 -9.3 15.2
09:10 1028 30.36 858 25.34 -2.4 27.6 60 -9.1 15.6
09:15 1028 30.36 858 25.34 -2 28.4 57 -9.3 15.2
09:20 1028 30.36 858 25.34 -2.1 28.3 61 -8.7 16.3
09:25 1028 30.36 857 25.31 -2.3 27.9 59 -9.2 15.5
09:30 1028 30.36 857 25.31 -2.3 27.9 60 -9 15.9
09:35 1028 30.36 857 25.31 -2.4 27.7 61 -8.9 15.9
09:40 1028 30.36 857 25.31 -2.2 28.1 59 -9.2 15.4
09:45 1028 30.36 857 25.31 -1.9 28.5 57 -9.4 15.1
09:50 1028 30.36 857 25.31 -2 28.5 56 -9.7 14.5
09:55 1028 30.36 857 25.31 -2.1 28.1 58 -9.4 15.1
10:00 1028 30.36 857 25.31 -1.7 28.9 55 -9.6 14.7
10:05 1028 30.36 857 25.31 -1.3 29.6 53 -9.7 14.5
10:10 1028 30.36 857 25.31 -1.1 30.1 50 -10.2 13.6
10:15 1028 30.36 857 25.31 -0.8 30.6 49 -10.1 13.8
10:20 1028 30.36 857 25.31 -0.9 30.4 49 -10.3 13.5
10:25 1028 30.36 857 25.31 -1.1 30.1 52 -9.7 14.5
10:30 1028 30.36 858 25.34 -0.7 30.8 49 -10.1 13.7
10:35 1028 30.36 858 25.34 -0.4 31.4 48 -10.2 13.7
10:40 1028 30.36 858 25.34 -0.3 31.4 49 -9.9 14.2
10:45 1028 30.36 858 25.34 0.1 32.2 49 -9.5 14.9
10:50 1028 30.36 858 25.34 -0.4 31.4 49 -9.9 14.3
10:55 1028 30.36 858 25.34 -0.7 30.8 50 -9.9 14.2
11:00 1028 30.36 857 25.31 -0.9 30.4 51 -9.9 14.3
11:05 1028 30.36 857 25.31 0.3 32.6 45 -10.3 13.4
11:10 1028 30.36 857 25.31 -0.5 31.1 48 -10.2 13.6
11:15 1028 30.36 857 25.31 -1.3 29.6 52 -10.1 13.8
11:20 1028 30.36 857 25.31 -1.7 28.9 51 -10.7 12.7
11:25 1028 30.36 857 25.31 -1.4 29.5 49 -10.8 12.5
11:30 1028 30.36 857 25.31 -1.4 29.5 50 -10.6 12.9
11:35 1028 30.36 857 25.31 -1.3 29.7 49 -10.7 12.7
11:40 1028 30.36 857 25.31 -0.9 30.4 48 -10.6 13
11:45 1028 30.36 857 25.31 -0.9 30.4 48 -10.5 13
11:50 1028 30.36 857 25.31 -0.6 30.9 48 -10.4 13.3
11:55 1028 30.36 857 25.31 0.6 33.1 45 -9.9 14.2
12:00 1028 30.36 857 25.31 1.3 34.4 44 -9.7 14.5
12:05 1028 30.36 857 25.31 1.2 34.1 44 -9.8 14.4
12:10 1028 30.36 857 25.31 0.8 33.5 45 -9.7 14.5
12:15 1028 30.36 857 25.31 0.9 33.7 45 -9.8 14.4
12:20 1028 30.36 857 25.31 0.5 32.9 44 -10.3 13.4
12:25 1028 30.36 857 25.31 0.6 33.1 45 -10.1 13.7
12:30 1028 30.36 857 25.31 0.7 33.2 44 -10.4 13.3
12:35 1028 30.36 857 25.31 1.7 35 41 -10.2 13.6
12:40 1028 30.36 857 25.31 0.6 33 45 -10.2 13.7
12:45 1028 30.36 857 25.31 0.5 32.8 43 -10.8 12.6
12:50 1028 30.36 857 25.31 0.2 32.3 44 -10.8 12.6
12:55 1028 30.36 857 25.31 0.8 33.5 42 -10.7 12.8
13:00 1028 30.36 857 25.31 0.7 33.3 43 -10.4 13.3
13:05 1028 30.36 857 25.31 -0.1 31.9 47 -10 13.9
13:10 1028 30.36 857 25.31 -0.1 31.9 43 -11.2 11.9
13:15 1028 30.36 857 25.31 0.6 33 41 -11.1 12
13:20 1028 30.36 857 25.31 1.6 34.8 40 -10.5 13.1
13:25 1028 30.36 857 25.31 1.5 34.7 41 -10.3 13.4
13:30 1028 30.36 857 25.31 1.5 34.8 39 -10.9 12.5
13:35 1027 30.33 857 25.31 0.3 32.5 42 -11.2 11.8
13:40 1027 30.33 857 25.31 0 32.1 44 -10.9 12.4
13:45 1027 30.33 857 25.31 0.3 32.6 44 -10.6 12.9
13:50 1027 30.33 857 25.31 0.2 32.3 43 -11 12.2
13:55 1027 30.33 857 25.31 0.4 32.7 42 -11 12.3
14:00 1027 30.33 857 25.31 0.4 32.8 41 -11.3 11.7
14:05 1027 30.33 857 25.31 0.6 33.2 41 -11.1 12
14:10 1027 30.33 857 25.31 0 32 42 -11.6 11.2
14:15 1027 30.33 857 25.31 0.1 32.2 41 -11.6 11
14:20 1027 30.33 857 25.31 0.3 32.5 41 -11.6 11.2
14:25 1027 30.33 856 25.28 1.2 34.2 37 -11.8 10.7
14:30 1027 30.33 856 25.28 1.4 34.4 37 -11.8 10.8
14:35 1027 30.33 856 25.28 1 33.9 37 -12 10.4
14:40 1027 30.33 856 25.28 1.7 35.1 37 -11.6 11.1
14:45 1027 30.33 856 25.28 1.7 35.1 37 -11.5 11.3
14:50 1027 30.33 856 25.28 1.5 34.7 37 -11.6 11.1
14:55 1027 30.33 856 25.28 1.9 35.4 36 -11.6 11.1
15:00 1027 30.33 856 25.28 1.4 34.6 36 -12.2 10.1
15:05 1027 30.33 856 25.28 1.3 34.4 37 -11.8 10.8
15:10 1027 30.33 856 25.28 1.4 34.5 38 -11.6 11.2
15:15 1027 30.33 856 25.28 1.8 35.2 36 -11.9 10.6
15:20 1027 30.33 856 25.28 1.6 34.9 38 -11.1 12
15:25 1027 30.33 856 25.28 1.5 34.7 41 -10.5 13.1
15:30 1027 30.33 856 25.28 1.8 35.2 40 -10.5 13.1
15:35 1027 30.33 856 25.28 1.6 34.8 39 -10.9 12.5
15:40 1027 30.33 856 25.28 1.7 35 40 -10.6 12.9
15:45 1027 30.33 856 25.28 1.9 35.4 39 -10.7 12.7
15:50 1027 30.33 856 25.28 1.9 35.5 37 -11.3 11.7
15:55 1027 30.33 856 25.28 1.8 35.3 38 -11.2 11.9
16:00 1027 30.33 856 25.28 1.9 35.4 39 -10.7 12.7
16:05 1027 30.33 856 25.28 2 35.6 37 -11.2 11.8
16:10 1027 30.33 856 25.28 2.1 35.7 39 -10.4 13.3
16:15 1027 30.33 856 25.28 2.2 35.9 39 -10.4 13.3
16:20 1027 30.33 856 25.28 2.4 36.4 38 -10.4 13.2
16:25 1027 30.33 856 25.28 2.3 36.1 39 -10.4 13.4
16:30 1027 30.33 856 25.28 2.5 36.4 38 -10.4 13.2
16:35 1027 30.33 856 25.28 2.4 36.4 38 -10.5 13.1
16:40 1027 30.33 856 25.28 2.2 36 39 -10.3 13.5
16:45 1026 30.3 856 25.28 2.4 36.4 38 -10.4 13.3
16:50 1026 30.3 856 25.28 2.2 36 39 -10.4 13.4
16:55 1026 30.3 856 25.28 2.3 36.1 39 -10.2 13.6
17:00 1026 30.3 855 25.25 2.2 36 40 -9.9 14.1
17:05 1026 30.3 856 25.28 2.1 35.8 40 -10.1 13.9
17:10 1026 30.3 855 25.25 2 35.6 42 -9.7 14.5
17:15 1026 30.3 855 25.25 1.8 35.3 42 -9.9 14.2
17:20 1026 30.3 855 25.25 1.8 35.2 43 -9.5 14.9
17:25 1026 30.3 856 25.28 1.7 35 44 -9.4 15.1
17:30 1026 30.3 856 25.28 1.7 35 44 -9.3 15.2
17:35 1026 30.3 856 25.28 1.4 34.6 46 -9 15.8
17:40 1026 30.3 856 25.28 1 33.8 48 -9 15.9
17:45 1026 30.3 856 25.28 0.7 33.2 49 -8.8 16.2
17:50 1026 30.3 856 25.28 0.5 32.8 52 -8.4 16.9
17:55 1026 30.3 856 25.28 0.3 32.5 53 -8.3 17.1
18:00 1026 30.3 856 25.28 0.2 32.3 55 -7.8 18
18:05 1026 30.3 856 25.28 -0 31.9 58 -7.4 18.7
18:10 1026 30.3 856 25.28 -0.2 31.7 54 -8.4 16.9
18:15 1026 30.3 856 25.28 -0.3 31.5 57 -7.7 18.2
18:20 1026 30.3 856 25.28 -0.6 31 58 -7.9 17.8
18:25 1027 30.33 856 25.28 -0.9 30.4 58 -8 17.5
18:30 1027 30.33 856 25.28 -1 30.1 59 -8.2 17.3
18:35 1027 30.33 856 25.28 -0.9 30.4 60 -7.7 18.2
18:40 1027 30.33 856 25.28 -0.8 30.6 61 -7.4 18.7
18:45 1027 30.33 856 25.28 -0.7 30.8 59 -7.7 18.2
18:50 1027 30.33 856 25.28 -0.5 31 55 -8.4 16.8
18:55 1027 30.33 856 25.28 -0.6 30.9 54 -8.7 16.4
19:00 1027 30.33 856 25.28 -0.7 30.7 57 -8.2 17.2
19:05 1027 30.33 856 25.28 -0.8 30.5 57 -8.4 17
19:10 1027 30.33 856 25.28 -1 30.2 54 -9.1 15.6
19:15 1027 30.33 856 25.28 -1 30.3 55 -8.9 16
19:20 1027 30.33 856 25.28 -1.1 30.1 54 -9.2 15.5
19:25 1027 30.33 856 25.28 -1.2 29.8 55 -9.1 15.5
19:30 1027 30.33 856 25.28 -1.3 29.6 56 -9 15.8
19:35 1027 30.33 856 25.28 -1.6 29.2 58 -8.7 16.3
19:40 1027 30.33 856 25.28 -1.8 28.8 60 -8.6 16.5
19:45 1027 30.33 856 25.28 -2 28.4 61 -8.5 16.8
19:50 1027 30.33 856 25.28 -2.1 28.3 59 -9 15.9
19:55 1027 30.33 856 25.28 -2 28.4 61 -8.5 16.7
20:00 1027 30.33 856 25.28 -2.1 28.2 61 -8.7 16.4
20:05 1027 30.33 856 25.28 -2.1 28.3 60 -8.7 16.3
20:10 1027 30.33 856 25.28 -2.2 28 61 -8.7 16.4
20:15 1027 30.33 856 25.28 -2.3 27.9 62 -8.5 16.6
20:20 1027 30.33 856 25.28 -2.3 27.8 63 -8.5 16.7
20:25 1027 30.33 856 25.28 -2.4 27.6 63 -8.5 16.8
20:30 1027 30.33 856 25.28 -2.6 27.3 64 -8.6 16.5
20:35 1027 30.33 856 25.28 -2.5 27.6 64 -8.3 17.1
20:40 1027 30.33 856 25.28 -2.5 27.5 66 -8 17.5
20:45 1027 30.33 856 25.28 -2.6 27.3 66 -8.2 17.3
20:50 1027 30.33 856 25.28 -2.6 27.4 65 -8.4 16.9
20:55 1027 30.33 856 25.28 -2.7 27.1 66 -8.2 17.2
21:00 1027 30.33 856 25.28 -2.7 27.2 65 -8.3 17.1
21:05 1027 30.33 856 25.28 -2.8 27 66 -8.2 17.2
21:10 1027 30.33 856 25.28 -2.9 26.9 67 -8.2 17.3
21:15 1027 30.33 856 25.28 -2.6 27.2 66 -8.1 17.4
21:20 1027 30.33 856 25.28 -2.7 27.2 66 -8.1 17.3
21:25 1027 30.33 856 25.28 -2.9 26.8 66 -8.3 17
21:30 1027 30.33 856 25.28 -3.1 26.5 67 -8.3 17
21:35 1027 30.33 856 25.28 -3.1 26.5 66 -8.5 16.7
21:40 1027 30.33 856 25.28 -3.1 26.4 67 -8.5 16.8
21:45 1027 30.33 856 25.28 -3.2 26.2 68 -8.4 16.9
21:50 1027 30.33 856 25.28 -3.4 25.9 69 -8.3 17
21:55 1027 30.33 856 25.28 -3.7 25.4 70 -8.4 16.8
22:00 1027 30.33 856 25.28 -3.7 25.4 69 -8.5 16.6
22:05 1027 30.33 856 25.28 -3.6 25.6 70 -8.3 17
22:10 1027 30.33 856 25.28 -3.3 26 68 -8.4 17
22:15 1027 30.33 856 25.28 -3.1 26.4 68 -8.2 17.3
22:20 1027 30.33 856 25.28 -3.2 26.3 68 -8.3 17.1
22:25 1027 30.33 856 25.28 -3.2 26.2 67 -8.5 16.7
22:30 1027 30.33 856 25.28 -3.3 26.1 68 -8.5 16.8
22:35 1027 30.33 856 25.28 -3.5 25.7 68 -8.6 16.6
22:40 1027 30.33 856 25.28 -3.4 25.8 67 -8.8 16.2
22:45 1027 30.33 856 25.28 -3.1 26.3 66 -8.7 16.4
22:50 1027 30.33 856 25.28 -2.9 26.8 65 -8.5 16.7
22:55 1027 30.33 856 25.28 -2.7 27.1 64 -8.6 16.5
23:00 1027 30.33 856 25.28 -2.7 27.2 64 -8.5 16.7
23:05 1027 30.33 856 25.28 -2.6 27.2 65 -8.3 17
23:10 1027 30.33 856 25.28 -2.7 27.2 65 -8.4 16.9
23:15 1027 30.33 856 25.28 -2.9 26.8 65 -8.6 16.6
23:20 1027 30.33 856 25.28 -3 26.7 66 -8.6 16.6
23:25 1027 30.33 856 25.28 -3.1 26.5 66 -8.5 16.7
23:30 1027 30.33 856 25.28 -3.3 26 67 -8.5 16.6
23:35 1027 30.33 856 25.28 -3.5 25.7 68 -8.6 16.6
23:40 1027 30.33 856 25.28 -3.6 25.5 69 -8.6 16.6
23:45 1027 30.33 856 25.28 -3.7 25.3 69 -8.7 16.4
23:50 1027 30.33 856 25.28 -3.5 25.7 67 -8.8 16.1
23:55 1027 30.33 856 25.28 -3.2 26.3 66 -8.7 16.3
24:00 1027 30.33 856 25.28 -3 26.5 65 -8.8 16.2